sensor_id;sensor_type;location;lat;lon;timestamp;P1;durP1;ratioP1;P2;durP2;ratioP2
9767;SDS011;4923;52.520;13.494;2023-03-01T00:00:15;11.25;;;5.60;;
9767;SDS011;4923;52.520;13.494;2023-03-01T00:03:04;10.88;;;5.03;;
9767;SDS011;4923;52.520;13.494;2023-03-01T00:05:51;6.95;;;5.35;;
9767;SDS011;4923;52.520;13.494;2023-03-01T00:08:38;7.15;;;4.88;;
9767;SDS011;4923;52.520;13.494;2023-03-01T00:11:26;12.52;;;7.20;;
9767;SDS011;4923;52.520;13.494;2023-03-01T00:14:14;22.63;;;10.35;;
9767;SDS011;4923;52.520;13.494;2023-03-01T00:17:01;11.27;;;6.43;;
9767;SDS011;4923;52.520;13.494;2023-03-01T00:19:49;11.30;;;7.47;;
9767;SDS011;4923;52.520;13.494;2023-03-01T00:22:36;10.18;;;7.10;;
9767;SDS011;4923;52.520;13.494;2023-03-01T00:25:23;12.57;;;7.13;;
9767;SDS011;4923;52.520;13.494;2023-03-01T00:28:10;9.43;;;6.13;;
9767;SDS011;4923;52.520;13.494;2023-03-01T00:31:01;7.65;;;4.78;;
9767;SDS011;4923;52.520;13.494;2023-03-01T00:33:51;7.32;;;5.00;;
9767;SDS011;4923;52.520;13.494;2023-03-01T00:36:43;11.15;;;6.10;;
9767;SDS011;4923;52.520;13.494;2023-03-01T00:39:30;7.97;;;5.45;;
9767;SDS011;4923;52.520;13.494;2023-03-01T00:42:18;8.60;;;5.75;;
9767;SDS011;4923;52.520;13.494;2023-03-01T00:45:05;11.00;;;6.95;;
9767;SDS011;4923;52.520;13.494;2023-03-01T00:47:54;19.17;;;7.55;;
9767;SDS011;4923;52.520;13.494;2023-03-01T00:50:40;12.10;;;6.55;;
9767;SDS011;4923;52.520;13.494;2023-03-01T00:53:29;11.85;;;6.93;;
9767;SDS011;4923;52.520;13.494;2023-03-01T00:56:15;12.10;;;6.68;;
9767;SDS011;4923;52.520;13.494;2023-03-01T00:59:02;5.43;;;4.93;;
9767;SDS011;4923;52.520;13.494;2023-03-01T01:01:49;7.78;;;5.00;;
9767;SDS011;4923;52.520;13.494;2023-03-01T01:04:36;5.22;;;4.75;;
9767;SDS011;4923;52.520;13.494;2023-03-01T01:07:23;6.25;;;4.88;;
9767;SDS011;4923;52.520;13.494;2023-03-01T01:10:11;4.93;;;4.43;;
9767;SDS011;4923;52.520;13.494;2023-03-01T01:13:02;9.27;;;5.03;;
9767;SDS011;4923;52.520;13.494;2023-03-01T01:15:49;6.80;;;4.93;;
9767;SDS011;4923;52.520;13.494;2023-03-01T01:18:36;6.93;;;4.20;;
9767;SDS011;4923;52.520;13.494;2023-03-01T01:21:23;5.93;;;3.22;;
9767;SDS011;4923;52.520;13.494;2023-03-01T01:24:12;6.85;;;4.68;;
9767;SDS011;4923;52.520;13.494;2023-03-01T01:27:00;10.32;;;4.68;;
9767;SDS011;4923;52.520;13.494;2023-03-01T01:29:47;8.60;;;5.60;;
9767;SDS011;4923;52.520;13.494;2023-03-01T01:32:34;4.25;;;3.92;;
9767;SDS011;4923;52.520;13.494;2023-03-01T01:35:20;4.50;;;3.80;;
9767;SDS011;4923;52.520;13.494;2023-03-01T01:38:07;6.28;;;4.60;;
9767;SDS011;4923;52.520;13.494;2023-03-01T01:40:55;6.70;;;4.05;;
9767;SDS011;4923;52.520;13.494;2023-03-01T01:43:44;4.18;;;3.55;;
9767;SDS011;4923;52.520;13.494;2023-03-01T01:46:33;6.65;;;3.45;;
9767;SDS011;4923;52.520;13.494;2023-03-01T01:49:25;5.32;;;4.82;;
9767;SDS011;4923;52.520;13.494;2023-03-01T01:52:18;5.10;;;4.10;;
9767;SDS011;4923;52.520;13.494;2023-03-01T01:55:10;8.20;;;4.25;;
9767;SDS011;4923;52.520;13.494;2023-03-01T01:58:02;5.70;;;4.43;;
9767;SDS011;4923;52.520;13.494;2023-03-01T02:00:54;6.25;;;4.07;;
9767;SDS011;4923;52.520;13.494;2023-03-01T02:03:42;9.35;;;3.97;;
9767;SDS011;4923;52.520;13.494;2023-03-01T02:06:31;5.20;;;4.20;;
9767;SDS011;4923;52.520;13.494;2023-03-01T02:09:22;4.88;;;4.20;;
9767;SDS011;4923;52.520;13.494;2023-03-01T02:12:10;6.28;;;4.18;;
9767;SDS011;4923;52.520;13.494;2023-03-01T02:14:57;12.10;;;5.55;;
9767;SDS011;4923;52.520;13.494;2023-03-01T02:17:45;5.53;;;4.53;;
9767;SDS011;4923;52.520;13.494;2023-03-01T02:20:34;4.93;;;4.45;;
9767;SDS011;4923;52.520;13.494;2023-03-01T02:23:27;5.00;;;4.65;;
9767;SDS011;4923;52.520;13.494;2023-03-01T02:26:17;7.95;;;4.50;;
9767;SDS011;4923;52.520;13.494;2023-03-01T02:29:11;6.30;;;4.50;;
9767;SDS011;4923;52.520;13.494;2023-03-01T02:31:59;8.15;;;4.65;;
9767;SDS011;4923;52.520;13.494;2023-03-01T02:34:48;6.45;;;5.35;;
9767;SDS011;4923;52.520;13.494;2023-03-01T02:37:35;11.70;;;6.03;;
9767;SDS011;4923;52.520;13.494;2023-03-01T02:40:22;5.07;;;4.50;;
9767;SDS011;4923;52.520;13.494;2023-03-01T02:43:10;7.25;;;4.95;;
9767;SDS011;4923;52.520;13.494;2023-03-01T02:46:02;5.50;;;5.00;;
9767;SDS011;4923;52.520;13.494;2023-03-01T02:48:51;4.72;;;4.35;;
9767;SDS011;4923;52.520;13.494;2023-03-01T02:51:42;7.05;;;4.60;;
9767;SDS011;4923;52.520;13.494;2023-03-01T02:54:36;5.57;;;4.85;;
9767;SDS011;4923;52.520;13.494;2023-03-01T02:57:27;17.75;;;5.60;;
9767;SDS011;4923;52.520;13.494;2023-03-01T03:00:16;10.55;;;4.97;;
9767;SDS011;4923;52.520;13.494;2023-03-01T03:03:06;4.40;;;4.07;;
9767;SDS011;4923;52.520;13.494;2023-03-01T03:05:54;8.25;;;4.55;;
9767;SDS011;4923;52.520;13.494;2023-03-01T03:08:41;6.47;;;3.95;;
9767;SDS011;4923;52.520;13.494;2023-03-01T03:11:29;7.47;;;5.18;;
9767;SDS011;4923;52.520;13.494;2023-03-01T03:14:17;8.68;;;5.20;;
9767;SDS011;4923;52.520;13.494;2023-03-01T03:17:04;6.03;;;4.40;;
9767;SDS011;4923;52.520;13.494;2023-03-01T03:19:53;15.80;;;4.80;;
9767;SDS011;4923;52.520;13.494;2023-03-01T03:22:40;9.95;;;5.38;;
9767;SDS011;4923;52.520;13.494;2023-03-01T03:25:27;6.85;;;5.30;;
9767;SDS011;4923;52.520;13.494;2023-03-01T03:28:15;6.47;;;4.60;;
9767;SDS011;4923;52.520;13.494;2023-03-01T03:31:02;7.32;;;4.82;;
9767;SDS011;4923;52.520;13.494;2023-03-01T03:33:52;14.25;;;5.05;;
9767;SDS011;4923;52.520;13.494;2023-03-01T03:36:40;6.97;;;4.72;;
9767;SDS011;4923;52.520;13.494;2023-03-01T03:39:27;8.43;;;4.82;;
9767;SDS011;4923;52.520;13.494;2023-03-01T03:42:20;4.25;;;3.90;;
9767;SDS011;4923;52.520;13.494;2023-03-01T03:45:07;7.40;;;5.07;;
9767;SDS011;4923;52.520;13.494;2023-03-01T03:47:54;6.95;;;5.57;;
9767;SDS011;4923;52.520;13.494;2023-03-01T03:50:41;8.05;;;5.55;;
9767;SDS011;4923;52.520;13.494;2023-03-01T03:53:34;10.93;;;6.10;;
9767;SDS011;4923;52.520;13.494;2023-03-01T03:56:21;8.13;;;5.93;;
9767;SDS011;4923;52.520;13.494;2023-03-01T03:59:11;8.55;;;5.75;;
9767;SDS011;4923;52.520;13.494;2023-03-01T04:01:58;8.02;;;5.40;;
9767;SDS011;4923;52.520;13.494;2023-03-01T04:04:45;9.95;;;5.55;;
9767;SDS011;4923;52.520;13.494;2023-03-01T04:07:32;8.55;;;5.93;;
9767;SDS011;4923;52.520;13.494;2023-03-01T04:10:20;5.97;;;4.70;;
9767;SDS011;4923;52.520;13.494;2023-03-01T04:13:07;8.40;;;5.43;;
9767;SDS011;4923;52.520;13.494;2023-03-01T04:15:57;10.05;;;6.35;;
9767;SDS011;4923;52.520;13.494;2023-03-01T04:18:44;10.95;;;5.70;;
9767;SDS011;4923;52.520;13.494;2023-03-01T04:21:31;8.00;;;6.18;;
9767;SDS011;4923;52.520;13.494;2023-03-01T04:24:18;8.98;;;5.80;;
9767;SDS011;4923;52.520;13.494;2023-03-01T04:27:06;13.98;;;8.02;;
9767;SDS011;4923;52.520;13.494;2023-03-01T04:29:53;9.13;;;6.70;;
9767;SDS011;4923;52.520;13.494;2023-03-01T04:32:40;16.23;;;7.00;;
9767;SDS011;4923;52.520;13.494;2023-03-01T04:35:27;7.55;;;5.18;;
9767;SDS011;4923;52.520;13.494;2023-03-01T04:38:14;9.45;;;5.80;;
9767;SDS011;4923;52.520;13.494;2023-03-01T04:41:01;6.70;;;5.80;;
9767;SDS011;4923;52.520;13.494;2023-03-01T04:43:50;12.90;;;6.63;;
9767;SDS011;4923;52.520;13.494;2023-03-01T04:46:37;8.63;;;5.45;;
9767;SDS011;4923;52.520;13.494;2023-03-01T04:49:24;7.32;;;5.95;;
9767;SDS011;4923;52.520;13.494;2023-03-01T04:52:11;11.00;;;6.65;;
9767;SDS011;4923;52.520;13.494;2023-03-01T04:54:57;12.50;;;6.40;;
9767;SDS011;4923;52.520;13.494;2023-03-01T04:57:44;12.73;;;5.82;;
9767;SDS011;4923;52.520;13.494;2023-03-01T05:00:33;8.77;;;6.32;;
9767;SDS011;4923;52.520;13.494;2023-03-01T05:03:19;9.63;;;6.22;;
9767;SDS011;4923;52.520;13.494;2023-03-01T05:06:07;8.43;;;7.18;;
9767;SDS011;4923;52.520;13.494;2023-03-01T05:08:54;18.52;;;7.45;;
9767;SDS011;4923;52.520;13.494;2023-03-01T05:11:41;8.70;;;6.13;;
9767;SDS011;4923;52.520;13.494;2023-03-01T05:14:28;9.05;;;5.97;;
9767;SDS011;4923;52.520;13.494;2023-03-01T05:17:16;7.95;;;6.25;;
9767;SDS011;4923;52.520;13.494;2023-03-01T05:20:03;10.75;;;7.35;;
9767;SDS011;4923;52.520;13.494;2023-03-01T05:22:55;9.88;;;6.40;;
9767;SDS011;4923;52.520;13.494;2023-03-01T05:25:43;9.30;;;7.03;;
9767;SDS011;4923;52.520;13.494;2023-03-01T05:28:31;17.02;;;7.22;;
9767;SDS011;4923;52.520;13.494;2023-03-01T05:31:18;15.05;;;7.70;;
9767;SDS011;4923;52.520;13.494;2023-03-01T05:34:06;17.85;;;7.82;;
9767;SDS011;4923;52.520;13.494;2023-03-01T05:36:53;14.38;;;6.93;;
9767;SDS011;4923;52.520;13.494;2023-03-01T05:39:40;12.25;;;6.80;;
9767;SDS011;4923;52.520;13.494;2023-03-01T05:42:27;9.80;;;6.45;;
9767;SDS011;4923;52.520;13.494;2023-03-01T05:45:16;8.52;;;6.35;;
9767;SDS011;4923;52.520;13.494;2023-03-01T05:48:03;19.25;;;7.68;;
9767;SDS011;4923;52.520;13.494;2023-03-01T05:50:52;11.20;;;7.15;;
9767;SDS011;4923;52.520;13.494;2023-03-01T05:53:39;9.80;;;6.40;;
9767;SDS011;4923;52.520;13.494;2023-03-01T05:56:26;15.57;;;7.57;;
9767;SDS011;4923;52.520;13.494;2023-03-01T05:59:14;10.55;;;6.13;;
9767;SDS011;4923;52.520;13.494;2023-03-01T06:02:01;11.30;;;7.00;;
9767;SDS011;4923;52.520;13.494;2023-03-01T06:04:48;7.50;;;6.47;;
9767;SDS011;4923;52.520;13.494;2023-03-01T06:07:36;13.85;;;6.82;;
9767;SDS011;4923;52.520;13.494;2023-03-01T06:10:23;16.35;;;7.28;;
9767;SDS011;4923;52.520;13.494;2023-03-01T06:13:10;9.88;;;6.93;;
9767;SDS011;4923;52.520;13.494;2023-03-01T06:15:57;10.05;;;6.70;;
9767;SDS011;4923;52.520;13.494;2023-03-01T06:18:44;12.40;;;8.32;;
9767;SDS011;4923;52.520;13.494;2023-03-01T06:21:31;15.30;;;7.30;;
9767;SDS011;4923;52.520;13.494;2023-03-01T06:24:19;15.65;;;7.75;;
9767;SDS011;4923;52.520;13.494;2023-03-01T06:27:07;12.85;;;7.88;;
9767;SDS011;4923;52.520;13.494;2023-03-01T06:29:53;12.40;;;7.07;;
9767;SDS011;4923;52.520;13.494;2023-03-01T06:32:41;12.38;;;6.57;;
9767;SDS011;4923;52.520;13.494;2023-03-01T06:35:28;21.40;;;7.70;;
9767;SDS011;4923;52.520;13.494;2023-03-01T06:38:16;22.27;;;12.07;;
9767;SDS011;4923;52.520;13.494;2023-03-01T06:41:05;19.17;;;9.80;;
9767;SDS011;4923;52.520;13.494;2023-03-01T06:43:53;26.73;;;8.85;;
9767;SDS011;4923;52.520;13.494;2023-03-01T06:46:40;31.23;;;10.23;;
9767;SDS011;4923;52.520;13.494;2023-03-01T06:49:27;26.30;;;12.98;;
9767;SDS011;4923;52.520;13.494;2023-03-01T06:52:13;34.22;;;14.95;;
9767;SDS011;4923;52.520;13.494;2023-03-01T06:55:00;42.40;;;12.85;;
9767;SDS011;4923;52.520;13.494;2023-03-01T06:57:48;21.08;;;11.77;;
9767;SDS011;4923;52.520;13.494;2023-03-01T07:00:39;50.58;;;13.98;;
9767;SDS011;4923;52.520;13.494;2023-03-01T07:03:28;24.90;;;11.70;;
9767;SDS011;4923;52.520;13.494;2023-03-01T07:06:15;17.33;;;10.30;;
9767;SDS011;4923;52.520;13.494;2023-03-01T07:09:03;16.15;;;8.60;;
9767;SDS011;4923;52.520;13.494;2023-03-01T07:11:50;30.95;;;10.30;;
9767;SDS011;4923;52.520;13.494;2023-03-01T07:14:38;22.20;;;11.57;;
9767;SDS011;4923;52.520;13.494;2023-03-01T07:17:25;26.88;;;14.10;;
9767;SDS011;4923;52.520;13.494;2023-03-01T07:20:12;41.30;;;17.33;;
9767;SDS011;4923;52.520;13.494;2023-03-01T07:22:59;31.65;;;15.93;;
9767;SDS011;4923;52.520;13.494;2023-03-01T07:25:50;40.78;;;21.80;;
9767;SDS011;4923;52.520;13.494;2023-03-01T07:28:38;34.60;;;19.83;;
9767;SDS011;4923;52.520;13.494;2023-03-01T07:31:26;31.50;;;17.85;;
9767;SDS011;4923;52.520;13.494;2023-03-01T07:34:13;28.05;;;16.65;;
9767;SDS011;4923;52.520;13.494;2023-03-01T07:37:00;31.27;;;16.52;;
9767;SDS011;4923;52.520;13.494;2023-03-01T07:39:47;44.80;;;16.48;;
9767;SDS011;4923;52.520;13.494;2023-03-01T07:42:34;23.45;;;13.55;;
9767;SDS011;4923;52.520;13.494;2023-03-01T07:45:21;26.23;;;13.98;;
9767;SDS011;4923;52.520;13.494;2023-03-01T07:48:09;32.17;;;13.73;;
9767;SDS011;4923;52.520;13.494;2023-03-01T07:50:57;27.00;;;14.23;;
9767;SDS011;4923;52.520;13.494;2023-03-01T07:53:45;22.75;;;14.27;;
9767;SDS011;4923;52.520;13.494;2023-03-01T07:56:33;38.60;;;14.48;;
9767;SDS011;4923;52.520;13.494;2023-03-01T07:59:20;33.88;;;14.63;;
9767;SDS011;4923;52.520;13.494;2023-03-01T08:02:08;25.67;;;13.43;;
9767;SDS011;4923;52.520;13.494;2023-03-01T08:04:57;32.10;;;12.65;;
9767;SDS011;4923;52.520;13.494;2023-03-01T08:07:44;22.63;;;11.60;;
9767;SDS011;4923;52.520;13.494;2023-03-01T08:10:31;23.30;;;9.63;;
9767;SDS011;4923;52.520;13.494;2023-03-01T08:13:18;14.43;;;8.10;;
9767;SDS011;4923;52.520;13.494;2023-03-01T08:16:08;8.75;;;6.35;;
9767;SDS011;4923;52.520;13.494;2023-03-01T08:18:57;17.92;;;7.65;;
9767;SDS011;4923;52.520;13.494;2023-03-01T08:21:48;29.45;;;5.80;;
9767;SDS011;4923;52.520;13.494;2023-03-01T08:24:34;14.32;;;5.88;;
9767;SDS011;4923;52.520;13.494;2023-03-01T08:27:21;8.25;;;5.55;;
9767;SDS011;4923;52.520;13.494;2023-03-01T08:30:09;6.55;;;5.15;;
9767;SDS011;4923;52.520;13.494;2023-03-01T08:32:57;10.88;;;6.15;;
9767;SDS011;4923;52.520;13.494;2023-03-01T08:35:43;7.53;;;4.35;;
9767;SDS011;4923;52.520;13.494;2023-03-01T08:38:32;6.43;;;3.85;;
9767;SDS011;4923;52.520;13.494;2023-03-01T08:41:19;3.45;;;3.15;;
9767;SDS011;4923;52.520;13.494;2023-03-01T08:44:06;4.45;;;2.88;;
9767;SDS011;4923;52.520;13.494;2023-03-01T08:46:54;5.30;;;3.45;;
9767;SDS011;4923;52.520;13.494;2023-03-01T08:49:41;5.72;;;2.83;;
9767;SDS011;4923;52.520;13.494;2023-03-01T08:52:27;7.13;;;3.20;;
9767;SDS011;4923;52.520;13.494;2023-03-01T08:55:16;9.35;;;3.45;;
9767;SDS011;4923;52.520;13.494;2023-03-01T08:58:03;3.30;;;2.50;;
9767;SDS011;4923;52.520;13.494;2023-03-01T09:00:50;9.60;;;2.75;;
9767;SDS011;4923;52.520;13.494;2023-03-01T09:03:37;4.38;;;3.30;;
9767;SDS011;4923;52.520;13.494;2023-03-01T09:06:24;3.15;;;2.70;;
9767;SDS011;4923;52.520;13.494;2023-03-01T09:09:13;3.78;;;2.97;;
9767;SDS011;4923;52.520;13.494;2023-03-01T09:12:03;7.63;;;3.10;;
9767;SDS011;4923;52.520;13.494;2023-03-01T09:14:50;8.80;;;3.05;;
9767;SDS011;4923;52.520;13.494;2023-03-01T09:17:37;3.28;;;2.90;;
9767;SDS011;4923;52.520;13.494;2023-03-01T09:20:24;1.75;;;1.65;;
9767;SDS011;4923;52.520;13.494;2023-03-01T09:23:11;2.00;;;1.90;;
9767;SDS011;4923;52.520;13.494;2023-03-01T09:25:58;2.63;;;2.40;;
9767;SDS011;4923;52.520;13.494;2023-03-01T09:28:46;4.82;;;2.10;;
9767;SDS011;4923;52.520;13.494;2023-03-01T09:31:34;2.60;;;2.00;;
9767;SDS011;4923;52.520;13.494;2023-03-01T09:34:21;3.13;;;2.10;;
9767;SDS011;4923;52.520;13.494;2023-03-01T09:37:08;2.25;;;2.05;;
9767;SDS011;4923;52.520;13.494;2023-03-01T09:39:55;3.13;;;1.80;;
9767;SDS011;4923;52.520;13.494;2023-03-01T09:42:53;2.58;;;1.65;;
9767;SDS011;4923;52.520;13.494;2023-03-01T09:45:43;2.83;;;1.88;;
9767;SDS011;4923;52.520;13.494;2023-03-01T09:48:40;3.15;;;1.58;;
9767;SDS011;4923;52.520;13.494;2023-03-01T09:51:31;4.10;;;2.22;;
9767;SDS011;4923;52.520;13.494;2023-03-01T09:54:20;3.72;;;2.05;;
9767;SDS011;4923;52.520;13.494;2023-03-01T09:57:14;7.13;;;1.98;;
9767;SDS011;4923;52.520;13.494;2023-03-01T10:00:17;1.85;;;1.75;;
9767;SDS011;4923;52.520;13.494;2023-03-01T10:03:14;2.00;;;1.80;;
9767;SDS011;4923;52.520;13.494;2023-03-01T10:06:09;1.30;;;1.20;;
9767;SDS011;4923;52.520;13.494;2023-03-01T10:09:02;18.98;;;2.78;;
9767;SDS011;4923;52.520;13.494;2023-03-01T10:11:52;1.40;;;1.30;;
9767;SDS011;4923;52.520;13.494;2023-03-01T10:14:43;6.63;;;1.80;;
9767;SDS011;4923;52.520;13.494;2023-03-01T10:17:35;1.48;;;1.38;;
9767;SDS011;4923;52.520;13.494;2023-03-01T10:20:29;3.10;;;2.10;;
9767;SDS011;4923;52.520;13.494;2023-03-01T10:23:23;2.80;;;1.55;;
9767;SDS011;4923;52.520;13.494;2023-03-01T10:26:17;1.92;;;1.35;;
9767;SDS011;4923;52.520;13.494;2023-03-01T10:29:12;2.42;;;1.83;;
9767;SDS011;4923;52.520;13.494;2023-03-01T10:32:01;2.65;;;2.45;;
9767;SDS011;4923;52.520;13.494;2023-03-01T10:34:51;2.70;;;1.80;;
9767;SDS011;4923;52.520;13.494;2023-03-01T10:37:39;1.88;;;1.70;;
9767;SDS011;4923;52.520;13.494;2023-03-01T10:40:53;3.55;;;1.42;;
9767;SDS011;4923;52.520;13.494;2023-03-01T10:43:43;1.65;;;1.55;;
9767;SDS011;4923;52.520;13.494;2023-03-01T10:46:32;2.35;;;1.52;;
9767;SDS011;4923;52.520;13.494;2023-03-01T10:49:21;3.33;;;1.33;;
9767;SDS011;4923;52.520;13.494;2023-03-01T10:52:11;2.17;;;1.23;;
9767;SDS011;4923;52.520;13.494;2023-03-01T10:55:23;1.80;;;1.70;;
9767;SDS011;4923;52.520;13.494;2023-03-01T10:58:17;6.35;;;1.73;;
9767;SDS011;4923;52.520;13.494;2023-03-01T11:01:06;1.80;;;1.70;;
9767;SDS011;4923;52.520;13.494;2023-03-01T11:04:11;6.00;;;1.60;;
9767;SDS011;4923;52.520;13.494;2023-03-01T11:07:00;4.28;;;1.40;;
9767;SDS011;4923;52.520;13.494;2023-03-01T11:09:48;2.30;;;1.67;;
9767;SDS011;4923;52.520;13.494;2023-03-01T11:12:36;3.35;;;1.90;;
9767;SDS011;4923;52.520;13.494;2023-03-01T11:15:24;3.03;;;1.30;;
9767;SDS011;4923;52.520;13.494;2023-03-01T11:18:18;3.38;;;1.38;;
9767;SDS011;4923;52.520;13.494;2023-03-01T11:21:06;1.80;;;1.40;;
9767;SDS011;4923;52.520;13.494;2023-03-01T11:23:54;1.35;;;1.25;;
9767;SDS011;4923;52.520;13.494;2023-03-01T11:26:44;8.60;;;1.23;;
9767;SDS011;4923;52.520;13.494;2023-03-01T11:29:36;1.33;;;1.08;;
9767;SDS011;4923;52.520;13.494;2023-03-01T11:32:28;1.77;;;1.20;;
9767;SDS011;4923;52.520;13.494;2023-03-01T11:35:21;2.88;;;1.20;;
9767;SDS011;4923;52.520;13.494;2023-03-01T11:38:15;25.13;;;2.03;;
9767;SDS011;4923;52.520;13.494;2023-03-01T11:41:06;0.60;;;0.60;;
9767;SDS011;4923;52.520;13.494;2023-03-01T11:43:59;0.77;;;0.77;;
9767;SDS011;4923;52.520;13.494;2023-03-01T11:46:54;1.25;;;0.82;;
9767;SDS011;4923;52.520;13.494;2023-03-01T11:50:07;1.38;;;0.77;;
9767;SDS011;4923;52.520;13.494;2023-03-01T11:53:13;1.23;;;0.98;;
9767;SDS011;4923;52.520;13.494;2023-03-01T11:56:13;3.25;;;1.30;;
9767;SDS011;4923;52.520;13.494;2023-03-01T11:59:16;0.80;;;0.80;;
9767;SDS011;4923;52.520;13.494;2023-03-01T12:02:33;0.70;;;0.70;;
9767;SDS011;4923;52.520;13.494;2023-03-01T12:05:45;1.65;;;0.82;;
9767;SDS011;4923;52.520;13.494;2023-03-01T12:08:49;1.65;;;0.85;;
9767;SDS011;4923;52.520;13.494;2023-03-01T12:11:53;1.48;;;1.38;;
9767;SDS011;4923;52.520;13.494;2023-03-01T12:14:57;1.60;;;1.35;;
9767;SDS011;4923;52.520;13.494;2023-03-01T12:18:16;2.65;;;0.85;;
9767;SDS011;4923;52.520;13.494;2023-03-01T12:21:27;2.25;;;1.40;;
9767;SDS011;4923;52.520;13.494;2023-03-01T12:24:26;0.85;;;0.85;;
9767;SDS011;4923;52.520;13.494;2023-03-01T12:27:30;0.85;;;0.85;;
9767;SDS011;4923;52.520;13.494;2023-03-01T12:30:34;0.70;;;0.70;;
9767;SDS011;4923;52.520;13.494;2023-03-01T12:33:31;3.92;;;0.82;;
9767;SDS011;4923;52.520;13.494;2023-03-01T12:36:38;1.02;;;1.02;;
9767;SDS011;4923;52.520;13.494;2023-03-01T12:39:39;0.70;;;0.70;;
9767;SDS011;4923;52.520;13.494;2023-03-01T12:42:35;4.43;;;3.55;;
9767;SDS011;4923;52.520;13.494;2023-03-01T12:45:45;2.90;;;1.02;;
9767;SDS011;4923;52.520;13.494;2023-03-01T12:48:40;2.15;;;1.10;;
9767;SDS011;4923;52.520;13.494;2023-03-01T12:51:34;1.50;;;0.88;;
9767;SDS011;4923;52.520;13.494;2023-03-01T12:54:25;2.00;;;1.90;;
9767;SDS011;4923;52.520;13.494;2023-03-01T12:57:15;1.30;;;0.90;;
9767;SDS011;4923;52.520;13.494;2023-03-01T13:00:11;1.15;;;0.80;;
9767;SDS011;4923;52.520;13.494;2023-03-01T13:03:14;3.70;;;1.27;;
9767;SDS011;4923;52.520;13.494;2023-03-01T13:06:12;2.60;;;0.88;;
9767;SDS011;4923;52.520;13.494;2023-03-01T13:09:10;1.45;;;1.15;;
9767;SDS011;4923;52.520;13.494;2023-03-01T13:12:03;0.80;;;0.80;;
9767;SDS011;4923;52.520;13.494;2023-03-01T13:15:26;2.15;;;1.00;;
9767;SDS011;4923;52.520;13.494;2023-03-01T13:18:27;7.38;;;1.15;;
9767;SDS011;4923;52.520;13.494;2023-03-01T13:21:28;1.00;;;1.00;;
9767;SDS011;4923;52.520;13.494;2023-03-01T13:24:26;0.80;;;0.80;;
9767;SDS011;4923;52.520;13.494;2023-03-01T13:27:22;3.83;;;1.38;;
9767;SDS011;4923;52.520;13.494;2023-03-01T13:33:44;1.20;;;1.10;;
9767;SDS011;4923;52.520;13.494;2023-03-01T13:36:48;1.10;;;0.98;;
9767;SDS011;4923;52.520;13.494;2023-03-01T13:39:39;1.10;;;1.00;;
9767;SDS011;4923;52.520;13.494;2023-03-01T13:42:37;3.25;;;0.90;;
9767;SDS011;4923;52.520;13.494;2023-03-01T13:45:33;0.80;;;0.80;;
9767;SDS011;4923;52.520;13.494;2023-03-01T13:48:26;2.35;;;1.20;;
9767;SDS011;4923;52.520;13.494;2023-03-01T13:51:14;2.35;;;0.90;;
9767;SDS011;4923;52.520;13.494;2023-03-01T13:54:01;1.08;;;1.00;;
9767;SDS011;4923;52.520;13.494;2023-03-01T13:56:48;1.30;;;0.98;;
9767;SDS011;4923;52.520;13.494;2023-03-01T13:59:35;1.23;;;1.15;;
9767;SDS011;4923;52.520;13.494;2023-03-01T14:02:33;1.17;;;1.15;;
9767;SDS011;4923;52.520;13.494;2023-03-01T14:05:23;1.63;;;1.00;;
9767;SDS011;4923;52.520;13.494;2023-03-01T14:08:20;1.63;;;1.52;;
9767;SDS011;4923;52.520;13.494;2023-03-01T14:14:29;0.90;;;0.90;;
9767;SDS011;4923;52.520;13.494;2023-03-01T14:17:36;1.20;;;1.10;;
9767;SDS011;4923;52.520;13.494;2023-03-01T14:20:32;1.17;;;1.13;;
9767;SDS011;4923;52.520;13.494;2023-03-01T14:23:24;2.33;;;0.90;;
9767;SDS011;4923;52.520;13.494;2023-03-01T14:26:12;0.90;;;0.90;;
9767;SDS011;4923;52.520;13.494;2023-03-01T14:28:59;0.70;;;0.70;;
9767;SDS011;4923;52.520;13.494;2023-03-01T14:31:47;10.18;;;1.30;;
9767;SDS011;4923;52.520;13.494;2023-03-01T14:34:34;2.90;;;1.17;;
9767;SDS011;4923;52.520;13.494;2023-03-01T14:37:24;2.20;;;0.80;;
9767;SDS011;4923;52.520;13.494;2023-03-01T14:40:19;1.63;;;1.00;;
9767;SDS011;4923;52.520;13.494;2023-03-01T14:43:12;0.82;;;0.82;;
9767;SDS011;4923;52.520;13.494;2023-03-01T14:46:06;3.10;;;1.20;;
9767;SDS011;4923;52.520;13.494;2023-03-01T14:49:04;1.67;;;1.00;;
9767;SDS011;4923;52.520;13.494;2023-03-01T14:51:57;0.80;;;0.80;;
9767;SDS011;4923;52.520;13.494;2023-03-01T14:54:47;2.15;;;1.25;;
9767;SDS011;4923;52.520;13.494;2023-03-01T14:57:36;4.43;;;1.48;;
9767;SDS011;4923;52.520;13.494;2023-03-01T15:00:24;4.38;;;1.42;;
9767;SDS011;4923;52.520;13.494;2023-03-01T15:03:17;0.88;;;0.88;;
9767;SDS011;4923;52.520;13.494;2023-03-01T15:06:11;1.50;;;0.90;;
9767;SDS011;4923;52.520;13.494;2023-03-01T15:09:02;0.95;;;0.95;;
9767;SDS011;4923;52.520;13.494;2023-03-01T15:11:51;0.70;;;0.70;;
9767;SDS011;4923;52.520;13.494;2023-03-01T15:14:39;1.15;;;1.15;;
9767;SDS011;4923;52.520;13.494;2023-03-01T15:17:28;1.40;;;1.30;;
9767;SDS011;4923;52.520;13.494;2023-03-01T15:20:19;0.90;;;0.90;;
9767;SDS011;4923;52.520;13.494;2023-03-01T15:23:12;2.15;;;0.80;;
9767;SDS011;4923;52.520;13.494;2023-03-01T15:26:04;1.67;;;0.70;;
9767;SDS011;4923;52.520;13.494;2023-03-01T15:28:53;1.08;;;1.08;;
9767;SDS011;4923;52.520;13.494;2023-03-01T15:31:52;2.60;;;1.15;;
9767;SDS011;4923;52.520;13.494;2023-03-01T15:34:41;1.63;;;1.00;;
9767;SDS011;4923;52.520;13.494;2023-03-01T15:37:39;2.00;;;1.10;;
9767;SDS011;4923;52.520;13.494;2023-03-01T15:40:30;0.95;;;0.80;;
9767;SDS011;4923;52.520;13.494;2023-03-01T15:46:26;2.28;;;0.80;;
9767;SDS011;4923;52.520;13.494;2023-03-01T15:49:23;3.47;;;1.27;;
9767;SDS011;4923;52.520;13.494;2023-03-01T15:52:21;5.55;;;1.00;;
9767;SDS011;4923;52.520;13.494;2023-03-01T15:55:15;7.20;;;1.23;;
9767;SDS011;4923;52.520;13.494;2023-03-01T15:58:04;1.40;;;1.00;;
9767;SDS011;4923;52.520;13.494;2023-03-01T16:00:52;0.70;;;0.70;;
9767;SDS011;4923;52.520;13.494;2023-03-01T16:03:43;0.60;;;0.60;;
9767;SDS011;4923;52.520;13.494;2023-03-01T16:06:30;0.60;;;0.60;;
9767;SDS011;4923;52.520;13.494;2023-03-01T16:09:16;0.70;;;0.70;;
9767;SDS011;4923;52.520;13.494;2023-03-01T16:12:03;0.80;;;0.80;;
9767;SDS011;4923;52.520;13.494;2023-03-01T16:14:52;1.15;;;1.15;;
9767;SDS011;4923;52.520;13.494;2023-03-01T16:17:39;0.75;;;0.75;;
9767;SDS011;4923;52.520;13.494;2023-03-01T16:20:27;1.10;;;1.10;;
9767;SDS011;4923;52.520;13.494;2023-03-01T16:23:15;4.15;;;0.88;;
9767;SDS011;4923;52.520;13.494;2023-03-01T16:26:02;4.45;;;0.98;;
9767;SDS011;4923;52.520;13.494;2023-03-01T16:28:49;3.20;;;0.93;;
9767;SDS011;4923;52.520;13.494;2023-03-01T16:31:36;1.48;;;0.70;;
9767;SDS011;4923;52.520;13.494;2023-03-01T16:34:23;5.55;;;1.17;;
9767;SDS011;4923;52.520;13.494;2023-03-01T16:37:11;1.08;;;0.90;;
9767;SDS011;4923;52.520;13.494;2023-03-01T16:39:58;1.40;;;1.20;;
9767;SDS011;4923;52.520;13.494;2023-03-01T16:42:45;2.55;;;1.10;;
9767;SDS011;4923;52.520;13.494;2023-03-01T16:45:32;1.25;;;0.80;;
9767;SDS011;4923;52.520;13.494;2023-03-01T16:48:20;7.10;;;1.20;;
9767;SDS011;4923;52.520;13.494;2023-03-01T16:51:07;2.42;;;1.00;;
9767;SDS011;4923;52.520;13.494;2023-03-01T16:53:56;2.25;;;1.27;;
9767;SDS011;4923;52.520;13.494;2023-03-01T16:56:42;8.57;;;1.25;;
9767;SDS011;4923;52.520;13.494;2023-03-01T16:59:29;1.00;;;0.90;;
9767;SDS011;4923;52.520;13.494;2023-03-01T17:02:16;1.95;;;1.17;;
9767;SDS011;4923;52.520;13.494;2023-03-01T17:05:05;7.93;;;2.97;;
9767;SDS011;4923;52.520;13.494;2023-03-01T17:07:52;18.23;;;4.50;;
9767;SDS011;4923;52.520;13.494;2023-03-01T17:10:42;19.15;;;4.03;;
9767;SDS011;4923;52.520;13.494;2023-03-01T17:13:29;5.53;;;2.45;;
9767;SDS011;4923;52.520;13.494;2023-03-01T17:16:17;2.30;;;1.90;;
9767;SDS011;4923;52.520;13.494;2023-03-01T17:19:05;3.58;;;1.60;;
9767;SDS011;4923;52.520;13.494;2023-03-01T17:21:52;7.07;;;1.60;;
9767;SDS011;4923;52.520;13.494;2023-03-01T17:24:39;1.58;;;1.48;;
9767;SDS011;4923;52.520;13.494;2023-03-01T17:27:28;4.40;;;1.60;;